sensor_id;sensor_type;location;lat;lon;timestamp;temperature;humidity
21759;DHT22;11041;50.854;20.580;2023-03-23T00:01:17;7.40;99.90
21759;DHT22;11041;50.854;20.580;2023-03-23T00:03:50;7.50;99.90
21759;DHT22;11041;50.854;20.580;2023-03-23T00:06:18;7.40;99.90
21759;DHT22;11041;50.854;20.580;2023-03-23T00:08:47;7.50;99.90
21759;DHT22;11041;50.854;20.580;2023-03-23T00:11:18;7.50;99.90
21759;DHT22;11041;50.854;20.580;2023-03-23T00:13:49;7.50;99.90
21759;DHT22;11041;50.854;20.580;2023-03-23T00:16:22;7.50;99.90
21759;DHT22;11041;50.854;20.580;2023-03-23T00:19:00;7.60;99.90
21759;DHT22;11041;50.854;20.580;2023-03-23T00:21:34;7.60;99.90
21759;DHT22;11041;50.854;20.580;2023-03-23T00:24:17;7.50;99.90
21759;DHT22;11041;50.854;20.580;2023-03-23T00:26:46;7.60;99.90
21759;DHT22;11041;50.854;20.580;2023-03-23T00:29:21;7.60;99.90
21759;DHT22;11041;50.854;20.580;2023-03-23T00:31:49;7.60;99.90
21759;DHT22;11041;50.854;20.580;2023-03-23T00:34:20;7.60;99.90
21759;DHT22;11041;50.854;20.580;2023-03-23T00:36:49;7.70;99.90
21759;DHT22;11041;50.854;20.580;2023-03-23T00:39:19;7.60;99.90
21759;DHT22;11041;50.854;20.580;2023-03-23T00:41:46;7.70;99.90
21759;DHT22;11041;50.854;20.580;2023-03-23T00:44:13;7.70;99.90
21759;DHT22;11041;50.854;20.580;2023-03-23T00:46:46;7.60;99.90
21759;DHT22;11041;50.854;20.580;2023-03-23T00:49:17;7.60;99.90
21759;DHT22;11041;50.854;20.580;2023-03-23T00:51:45;7.60;99.90
21759;DHT22;11041;50.854;20.580;2023-03-23T00:54:12;7.60;99.90
21759;DHT22;11041;50.854;20.580;2023-03-23T00:56:39;7.60;99.90
21759;DHT22;11041;50.854;20.580;2023-03-23T00:59:06;7.60;99.90
21759;DHT22;11041;50.854;20.580;2023-03-23T01:01:32;7.60;99.90
21759;DHT22;11041;50.854;20.580;2023-03-23T01:04:01;7.60;99.90
21759;DHT22;11041;50.854;20.580;2023-03-23T01:06:34;7.60;99.90
21759;DHT22;11041;50.854;20.580;2023-03-23T01:09:11;7.50;99.90
21759;DHT22;11041;50.854;20.580;2023-03-23T01:11:43;7.50;99.90
21759;DHT22;11041;50.854;20.580;2023-03-23T01:14:12;7.50;99.90
21759;DHT22;11041;50.854;20.580;2023-03-23T01:16:41;7.50;99.90
21759;DHT22;11041;50.854;20.580;2023-03-23T01:19:08;7.50;99.90
21759;DHT22;11041;50.854;20.580;2023-03-23T01:21:35;7.50;99.90
21759;DHT22;11041;50.854;20.580;2023-03-23T01:24:02;7.50;99.90
21759;DHT22;11041;50.854;20.580;2023-03-23T01:26:29;7.40;99.90
21759;DHT22;11041;50.854;20.580;2023-03-23T01:28:56;7.40;99.90
21759;DHT22;11041;50.854;20.580;2023-03-23T01:31:24;7.40;99.90
21759;DHT22;11041;50.854;20.580;2023-03-23T01:33:52;7.40;99.90
21759;DHT22;11041;50.854;20.580;2023-03-23T01:36:26;7.30;99.90
21759;DHT22;11041;50.854;20.580;2023-03-23T01:38:55;7.30;99.90
21759;DHT22;11041;50.854;20.580;2023-03-23T01:41:24;7.30;99.90
21759;DHT22;11041;50.854;20.580;2023-03-23T01:44:06;7.30;99.90
21759;DHT22;11041;50.854;20.580;2023-03-23T01:46:53;7.20;99.90
21759;DHT22;11041;50.854;20.580;2023-03-23T01:49:27;7.20;99.90
21759;DHT22;11041;50.854;20.580;2023-03-23T01:52:06;7.20;99.90
21759;DHT22;11041;50.854;20.580;2023-03-23T01:54:39;7.10;99.90
21759;DHT22;11041;50.854;20.580;2023-03-23T01:57:13;7.00;99.90
21759;DHT22;11041;50.854;20.580;2023-03-23T01:59:47;7.00;99.90
21759;DHT22;11041;50.854;20.580;2023-03-23T02:02:17;6.90;99.90
21759;DHT22;11041;50.854;20.580;2023-03-23T02:04:47;6.90;99.90
21759;DHT22;11041;50.854;20.580;2023-03-23T02:07:15;6.80;99.90
21759;DHT22;11041;50.854;20.580;2023-03-23T02:09:46;6.80;99.90
21759;DHT22;11041;50.854;20.580;2023-03-23T02:12:12;6.60;99.90
21759;DHT22;11041;50.854;20.580;2023-03-23T02:14:39;6.70;99.90
21759;DHT22;11041;50.854;20.580;2023-03-23T02:17:24;6.60;99.90
21759;DHT22;11041;50.854;20.580;2023-03-23T02:35:17;6.40;99.90
21759;DHT22;11041;50.854;20.580;2023-03-23T02:37:56;6.40;99.90
21759;DHT22;11041;50.854;20.580;2023-03-23T02:43:53;6.40;99.90
21759;DHT22;11041;50.854;20.580;2023-03-23T02:46:22;6.40;99.90
21759;DHT22;11041;50.854;20.580;2023-03-23T02:48:51;6.50;99.90
21759;DHT22;11041;50.854;20.580;2023-03-23T02:51:23;6.50;99.90
21759;DHT22;11041;50.854;20.580;2023-03-23T02:53:53;6.40;99.90
21759;DHT22;11041;50.854;20.580;2023-03-23T02:56:24;6.40;99.90
21759;DHT22;11041;50.854;20.580;2023-03-23T02:58:55;6.30;99.90
21759;DHT22;11041;50.854;20.580;2023-03-23T03:03:54;6.30;99.90
21759;DHT22;11041;50.854;20.580;2023-03-23T03:09:26;6.10;99.90
21759;DHT22;11041;50.854;20.580;2023-03-23T03:15:56;6.20;99.90
21759;DHT22;11041;50.854;20.580;2023-03-23T03:18:52;6.10;99.90
21759;DHT22;11041;50.854;20.580;2023-03-23T03:21:29;6.10;99.90
21759;DHT22;11041;50.854;20.580;2023-03-23T03:24:01;6.20;99.90
21759;DHT22;11041;50.854;20.580;2023-03-23T03:26:31;6.20;99.90
21759;DHT22;11041;50.854;20.580;2023-03-23T03:29:01;6.20;99.90
21759;DHT22;11041;50.854;20.580;2023-03-23T03:31:32;6.20;99.90
21759;DHT22;11041;50.854;20.580;2023-03-23T03:34:05;6.10;99.90
21759;DHT22;11041;50.854;20.580;2023-03-23T03:36:34;6.00;99.90
21759;DHT22;11041;50.854;20.580;2023-03-23T03:39:05;6.00;99.90
21759;DHT22;11041;50.854;20.580;2023-03-23T03:41:35;5.90;99.90
21759;DHT22;11041;50.854;20.580;2023-03-23T03:44:06;5.90;99.90
21759;DHT22;11041;50.854;20.580;2023-03-23T03:46:34;5.90;99.90
21759;DHT22;11041;50.854;20.580;2023-03-23T03:49:04;6.00;99.90
21759;DHT22;11041;50.854;20.580;2023-03-23T03:51:33;5.90;99.90
21759;DHT22;11041;50.854;20.580;2023-03-23T03:54:01;5.90;99.90
21759;DHT22;11041;50.854;20.580;2023-03-23T03:56:28;5.80;99.90
21759;DHT22;11041;50.854;20.580;2023-03-23T03:58:57;5.80;99.90
21759;DHT22;11041;50.854;20.580;2023-03-23T04:01:24;5.80;99.90
21759;DHT22;11041;50.854;20.580;2023-03-23T04:03:51;5.80;99.90
21759;DHT22;11041;50.854;20.580;2023-03-23T04:06:18;5.70;99.90
21759;DHT22;11041;50.854;20.580;2023-03-23T04:08:45;5.70;99.90
21759;DHT22;11041;50.854;20.580;2023-03-23T04:11:14;5.70;99.90
21759;DHT22;11041;50.854;20.580;2023-03-23T04:13:41;5.70;99.90
21759;DHT22;11041;50.854;20.580;2023-03-23T04:16:08;5.70;99.90
21759;DHT22;11041;50.854;20.580;2023-03-23T04:18:35;5.70;99.90
21759;DHT22;11041;50.854;20.580;2023-03-23T04:21:03;5.70;99.90
21759;DHT22;11041;50.854;20.580;2023-03-23T04:23:34;5.70;99.90
21759;DHT22;11041;50.854;20.580;2023-03-23T04:26:03;5.80;99.90
21759;DHT22;11041;50.854;20.580;2023-03-23T04:28:30;5.70;99.90
21759;DHT22;11041;50.854;20.580;2023-03-23T04:31:00;5.70;99.90
21759;DHT22;11041;50.854;20.580;2023-03-23T04:33:28;5.60;99.90
21759;DHT22;11041;50.854;20.580;2023-03-23T04:35:59;5.60;99.90
21759;DHT22;11041;50.854;20.580;2023-03-23T04:38:28;5.60;99.90
21759;DHT22;11041;50.854;20.580;2023-03-23T04:40:58;5.60;99.90
21759;DHT22;11041;50.854;20.580;2023-03-23T04:43:27;5.50;99.90
21759;DHT22;11041;50.854;20.580;2023-03-23T04:45:58;5.50;99.90
21759;DHT22;11041;50.854;20.580;2023-03-23T04:48:29;5.40;99.90
21759;DHT22;11041;50.854;20.580;2023-03-23T04:51:01;5.40;99.90
21759;DHT22;11041;50.854;20.580;2023-03-23T04:53:32;5.50;99.90
21759;DHT22;11041;50.854;20.580;2023-03-23T04:55:59;5.50;99.90
21759;DHT22;11041;50.854;20.580;2023-03-23T04:58:27;5.50;99.90
21759;DHT22;11041;50.854;20.580;2023-03-23T05:00:55;5.50;99.90
21759;DHT22;11041;50.854;20.580;2023-03-23T05:03:22;5.50;99.90
21759;DHT22;11041;50.854;20.580;2023-03-23T05:05:48;5.50;99.90
21759;DHT22;11041;50.854;20.580;2023-03-23T05:08:22;5.60;99.90
21759;DHT22;11041;50.854;20.580;2023-03-23T05:10:55;5.60;99.90
21759;DHT22;11041;50.854;20.580;2023-03-23T05:13:23;5.70;99.90
21759;DHT22;11041;50.854;20.580;2023-03-23T05:15:50;5.70;99.90
21759;DHT22;11041;50.854;20.580;2023-03-23T05:18:17;5.80;99.90
21759;DHT22;11041;50.854;20.580;2023-03-23T05:20:44;5.90;99.90
21759;DHT22;11041;50.854;20.580;2023-03-23T05:23:13;6.00;99.90
21759;DHT22;11041;50.854;20.580;2023-03-23T05:25:40;6.10;99.90
21759;DHT22;11041;50.854;20.580;2023-03-23T05:28:08;6.20;99.90
21759;DHT22;11041;50.854;20.580;2023-03-23T05:30:37;6.30;99.90
21759;DHT22;11041;50.854;20.580;2023-03-23T05:33:05;6.30;99.90
21759;DHT22;11041;50.854;20.580;2023-03-23T05:35:32;6.40;99.90
21759;DHT22;11041;50.854;20.580;2023-03-23T05:37:58;6.40;99.90
21759;DHT22;11041;50.854;20.580;2023-03-23T05:40:25;6.50;99.90
21759;DHT22;11041;50.854;20.580;2023-03-23T05:42:53;6.60;99.90
21759;DHT22;11041;50.854;20.580;2023-03-23T05:45:21;6.80;99.90
21759;DHT22;11041;50.854;20.580;2023-03-23T05:47:49;6.90;99.90
21759;DHT22;11041;50.854;20.580;2023-03-23T05:50:16;7.00;99.90
21759;DHT22;11041;50.854;20.580;2023-03-23T05:52:43;7.10;99.90
21759;DHT22;11041;50.854;20.580;2023-03-23T05:55:10;7.20;99.90
21759;DHT22;11041;50.854;20.580;2023-03-23T05:57:38;7.30;99.90
21759;DHT22;11041;50.854;20.580;2023-03-23T06:00:06;7.40;99.90
21759;DHT22;11041;50.854;20.580;2023-03-23T06:02:56;7.50;99.90
21759;DHT22;11041;50.854;20.580;2023-03-23T06:05:23;7.70;99.90
21759;DHT22;11041;50.854;20.580;2023-03-23T06:07:52;7.80;99.90
21759;DHT22;11041;50.854;20.580;2023-03-23T06:10:19;8.00;99.90
21759;DHT22;11041;50.854;20.580;2023-03-23T06:12:47;8.10;99.90
21759;DHT22;11041;50.854;20.580;2023-03-23T06:15:17;8.30;99.90
21759;DHT22;11041;50.854;20.580;2023-03-23T06:17:44;8.40;99.90
21759;DHT22;11041;50.854;20.580;2023-03-23T06:20:11;8.60;99.90
21759;DHT22;11041;50.854;20.580;2023-03-23T06:22:38;8.70;99.90
21759;DHT22;11041;50.854;20.580;2023-03-23T06:25:08;8.90;99.90
21759;DHT22;11041;50.854;20.580;2023-03-23T06:27:37;9.00;99.90
21759;DHT22;11041;50.854;20.580;2023-03-23T06:30:05;9.20;99.90
21759;DHT22;11041;50.854;20.580;2023-03-23T06:32:32;9.30;99.90
21759;DHT22;11041;50.854;20.580;2023-03-23T06:35:00;9.40;99.90
21759;DHT22;11041;50.854;20.580;2023-03-23T06:37:27;9.50;99.90
21759;DHT22;11041;50.854;20.580;2023-03-23T06:39:53;9.50;99.90
21759;DHT22;11041;50.854;20.580;2023-03-23T06:42:21;9.70;99.90
21759;DHT22;11041;50.854;20.580;2023-03-23T06:44:51;9.70;99.90
21759;DHT22;11041;50.854;20.580;2023-03-23T06:47:18;9.80;99.90
21759;DHT22;11041;50.854;20.580;2023-03-23T06:49:44;9.90;99.90
21759;DHT22;11041;50.854;20.580;2023-03-23T06:52:11;10.00;99.90
21759;DHT22;11041;50.854;20.580;2023-03-23T06:54:38;10.00;99.90
21759;DHT22;11041;50.854;20.580;2023-03-23T06:57:04;10.20;99.90
21759;DHT22;11041;50.854;20.580;2023-03-23T06:59:31;10.30;99.90
21759;DHT22;11041;50.854;20.580;2023-03-23T07:01:57;10.40;99.90
21759;DHT22;11041;50.854;20.580;2023-03-23T07:04:24;10.50;99.90
21759;DHT22;11041;50.854;20.580;2023-03-23T07:06:50;10.60;99.90
21759;DHT22;11041;50.854;20.580;2023-03-23T07:09:17;10.70;99.90
21759;DHT22;11041;50.854;20.580;2023-03-23T07:11:43;10.80;99.90
21759;DHT22;11041;50.854;20.580;2023-03-23T07:14:12;11.00;99.90
21759;DHT22;11041;50.854;20.580;2023-03-23T07:16:38;11.20;99.90
21759;DHT22;11041;50.854;20.580;2023-03-23T07:19:04;11.30;99.90
21759;DHT22;11041;50.854;20.580;2023-03-23T07:21:31;11.40;99.90
21759;DHT22;11041;50.854;20.580;2023-03-23T07:23:58;11.40;99.90
21759;DHT22;11041;50.854;20.580;2023-03-23T07:26:24;11.50;99.90
21759;DHT22;11041;50.854;20.580;2023-03-23T07:28:51;11.60;99.90
21759;DHT22;11041;50.854;20.580;2023-03-23T07:31:17;11.70;99.90
21759;DHT22;11041;50.854;20.580;2023-03-23T07:33:44;11.80;99.90
21759;DHT22;11041;50.854;20.580;2023-03-23T07:36:10;11.90;99.90
21759;DHT22;11041;50.854;20.580;2023-03-23T07:38:37;11.90;99.90
21759;DHT22;11041;50.854;20.580;2023-03-23T07:41:05;11.90;99.90
21759;DHT22;11041;50.854;20.580;2023-03-23T07:43:32;12.00;99.90
21759;DHT22;11041;50.854;20.580;2023-03-23T07:45:59;12.10;99.90
21759;DHT22;11041;50.854;20.580;2023-03-23T07:48:26;12.20;99.90
21759;DHT22;11041;50.854;20.580;2023-03-23T07:50:53;12.30;99.90
21759;DHT22;11041;50.854;20.580;2023-03-23T07:53:20;12.40;99.90
21759;DHT22;11041;50.854;20.580;2023-03-23T07:55:48;12.60;99.90
21759;DHT22;11041;50.854;20.580;2023-03-23T07:58:14;12.80;99.90
21759;DHT22;11041;50.854;20.580;2023-03-23T08:00:46;12.90;99.90
21759;DHT22;11041;50.854;20.580;2023-03-23T08:03:23;13.10;99.90
21759;DHT22;11041;50.854;20.580;2023-03-23T08:06:02;13.10;99.90
21759;DHT22;11041;50.854;20.580;2023-03-23T08:08:29;13.10;99.90
21759;DHT22;11041;50.854;20.580;2023-03-23T08:10:56;13.30;99.90
21759;DHT22;11041;50.854;20.580;2023-03-23T08:13:22;13.40;99.90
21759;DHT22;11041;50.854;20.580;2023-03-23T08:15:50;13.40;99.90
21759;DHT22;11041;50.854;20.580;2023-03-23T08:18:17;13.70;99.90
21759;DHT22;11041;50.854;20.580;2023-03-23T08:20:44;13.90;99.90
21759;DHT22;11041;50.854;20.580;2023-03-23T08:23:11;14.00;99.90
21759;DHT22;11041;50.854;20.580;2023-03-23T08:25:38;14.10;99.90
21759;DHT22;11041;50.854;20.580;2023-03-23T08:28:06;14.20;99.90
21759;DHT22;11041;50.854;20.580;2023-03-23T08:30:32;14.30;99.90
21759;DHT22;11041;50.854;20.580;2023-03-23T08:33:00;14.30;99.90
21759;DHT22;11041;50.854;20.580;2023-03-23T08:35:27;14.30;99.90
21759;DHT22;11041;50.854;20.580;2023-03-23T08:37:54;14.30;99.90
21759;DHT22;11041;50.854;20.580;2023-03-23T08:40:22;14.40;99.90
21759;DHT22;11041;50.854;20.580;2023-03-23T08:42:50;14.60;99.90
21759;DHT22;11041;50.854;20.580;2023-03-23T08:45:21;14.70;99.90
21759;DHT22;11041;50.854;20.580;2023-03-23T08:47:49;14.70;99.90
21759;DHT22;11041;50.854;20.580;2023-03-23T08:50:21;14.80;99.90
21759;DHT22;11041;50.854;20.580;2023-03-23T08:52:53;14.90;99.90
21759;DHT22;11041;50.854;20.580;2023-03-23T08:55:21;15.00;99.90
21759;DHT22;11041;50.854;20.580;2023-03-23T08:57:48;15.10;99.90
21759;DHT22;11041;50.854;20.580;2023-03-23T09:00:18;15.10;99.90
21759;DHT22;11041;50.854;20.580;2023-03-23T09:02:48;15.30;99.90
21759;DHT22;11041;50.854;20.580;2023-03-23T09:05:20;15.40;99.90
21759;DHT22;11041;50.854;20.580;2023-03-23T09:07:51;15.30;99.90
21759;DHT22;11041;50.854;20.580;2023-03-23T09:10:20;15.40;99.90
21759;DHT22;11041;50.854;20.580;2023-03-23T09:12:48;15.40;99.90
21759;DHT22;11041;50.854;20.580;2023-03-23T09:15:17;15.50;99.90
21759;DHT22;11041;50.854;20.580;2023-03-23T09:17:46;15.70;99.90
21759;DHT22;11041;50.854;20.580;2023-03-23T09:20:16;15.80;99.90
21759;DHT22;11041;50.854;20.580;2023-03-23T09:22:51;15.90;99.90
21759;DHT22;11041;50.854;20.580;2023-03-23T09:25:23;16.00;99.90
21759;DHT22;11041;50.854;20.580;2023-03-23T09:27:55;16.10;99.90
21759;DHT22;11041;50.854;20.580;2023-03-23T09:30:25;16.10;99.90
21759;DHT22;11041;50.854;20.580;2023-03-23T09:32:55;16.20;99.90
21759;DHT22;11041;50.854;20.580;2023-03-23T09:35:23;16.20;99.90
21759;DHT22;11041;50.854;20.580;2023-03-23T09:37:52;16.30;99.90
21759;DHT22;11041;50.854;20.580;2023-03-23T09:40:45;16.30;99.90
21759;DHT22;11041;50.854;20.580;2023-03-23T09:43:28;16.40;99.90
21759;DHT22;11041;50.854;20.580;2023-03-23T09:46:29;16.60;99.90
21759;DHT22;11041;50.854;20.580;2023-03-23T09:49:11;16.70;99.90
21759;DHT22;11041;50.854;20.580;2023-03-23T09:54:23;16.70;99.90
21759;DHT22;11041;50.854;20.580;2023-03-23T09:56:51;16.80;99.90
21759;DHT22;11041;50.854;20.580;2023-03-23T09:59:39;16.90;99.90
21759;DHT22;11041;50.854;20.580;2023-03-23T10:02:29;17.00;99.90
21759;DHT22;11041;50.854;20.580;2023-03-23T10:05:31;16.90;99.90
21759;DHT22;11041;50.854;20.580;2023-03-23T10:08:08;17.10;99.90
21759;DHT22;11041;50.854;20.580;2023-03-23T10:20:02;17.40;99.90
21759;DHT22;11041;50.854;20.580;2023-03-23T10:29:12;17.60;99.90
21759;DHT22;11041;50.854;20.580;2023-03-23T10:34:54;17.90;99.90
21759;DHT22;11041;50.854;20.580;2023-03-23T10:37:32;18.10;99.80
21759;DHT22;11041;50.854;20.580;2023-03-23T10:40:05;18.20;99.10
21759;DHT22;11041;50.854;20.580;2023-03-23T10:42:40;18.40;97.20
21759;DHT22;11041;50.854;20.580;2023-03-23T10:45:23;18.40;97.50
21759;DHT22;11041;50.854;20.580;2023-03-23T10:48:07;18.70;96.10
21759;DHT22;11041;50.854;20.580;2023-03-23T10:50:39;18.70;94.70
21759;DHT22;11041;50.854;20.580;2023-03-23T10:53:18;18.80;92.80
21759;DHT22;11041;50.854;20.580;2023-03-23T10:55:47;18.80;91.70
21759;DHT22;11041;50.854;20.580;2023-03-23T10:58:27;18.80;91.60
21759;DHT22;11041;50.854;20.580;2023-03-23T11:01:00;19.00;90.40
21759;DHT22;11041;50.854;20.580;2023-03-23T11:03:47;19.10;90.60
21759;DHT22;11041;50.854;20.580;2023-03-23T11:06:34;19.40;89.80
21759;DHT22;11041;50.854;20.580;2023-03-23T11:09:17;19.50;88.90
21759;DHT22;11041;50.854;20.580;2023-03-23T11:11:54;19.50;88.70
21759;DHT22;11041;50.854;20.580;2023-03-23T11:14:30;19.60;87.90
21759;DHT22;11041;50.854;20.580;2023-03-23T11:17:02;19.50;87.90
21759;DHT22;11041;50.854;20.580;2023-03-23T11:19:34;19.50;89.20
21759;DHT22;11041;50.854;20.580;2023-03-23T11:22:20;19.60;89.80
21759;DHT22;11041;50.854;20.580;2023-03-23T11:24:53;19.50;89.40
21759;DHT22;11041;50.854;20.580;2023-03-23T11:27:23;19.50;87.60
21759;DHT22;11041;50.854;20.580;2023-03-23T11:29:53;19.40;87.30
21759;DHT22;11041;50.854;20.580;2023-03-23T11:32:26;19.40;88.00
21759;DHT22;11041;50.854;20.580;2023-03-23T11:34:58;19.20;87.20
21759;DHT22;11041;50.854;20.580;2023-03-23T11:40:30;19.00;88.40
21759;DHT22;11041;50.854;20.580;2023-03-23T11:43:23;19.00;87.90
21759;DHT22;11041;50.854;20.580;2023-03-23T11:49:24;19.20;86.50
21759;DHT22;11041;50.854;20.580;2023-03-23T11:52:26;19.40;87.20
21759;DHT22;11041;50.854;20.580;2023-03-23T11:56:19;19.30;85.10
21759;DHT22;11041;50.854;20.580;2023-03-23T11:59:11;19.50;85.50
21759;DHT22;11041;50.854;20.580;2023-03-23T12:15:47;19.80;82.70
21759;DHT22;11041;50.854;20.580;2023-03-23T12:50:27;19.20;82.40
21759;DHT22;11041;50.854;20.580;2023-03-23T12:56:33;19.10;83.10
21759;DHT22;11041;50.854;20.580;2023-03-23T13:02:28;19.10;84.40
21759;DHT22;11041;50.854;20.580;2023-03-23T13:06:02;19.00;84.90
21759;DHT22;11041;50.854;20.580;2023-03-23T13:08:44;19.00;85.50
21759;DHT22;11041;50.854;20.580;2023-03-23T13:14:26;18.70;86.00
21759;DHT22;11041;50.854;20.580;2023-03-23T13:17:25;18.60;86.50
21759;DHT22;11041;50.854;20.580;2023-03-23T13:23:39;18.50;88.50
21759;DHT22;11041;50.854;20.580;2023-03-23T13:26:17;18.40;88.60
21759;DHT22;11041;50.854;20.580;2023-03-23T13:28:49;18.30;89.90
21759;DHT22;11041;50.854;20.580;2023-03-23T13:31:25;18.30;90.40
21759;DHT22;11041;50.854;20.580;2023-03-23T13:36:44;18.30;90.80
21759;DHT22;11041;50.854;20.580;2023-03-23T13:45:06;17.90;92.60
21759;DHT22;11041;50.854;20.580;2023-03-23T13:50:58;17.70;92.20
21759;DHT22;11041;50.854;20.580;2023-03-23T13:53:46;17.70;92.40
21759;DHT22;11041;50.854;20.580;2023-03-23T13:58:50;17.80;92.60
21759;DHT22;11041;50.854;20.580;2023-03-23T14:01:34;17.70;92.90
21759;DHT22;11041;50.854;20.580;2023-03-23T14:04:07;17.70;93.00
21759;DHT22;11041;50.854;20.580;2023-03-23T14:06:40;17.70;92.90
21759;DHT22;11041;50.854;20.580;2023-03-23T14:09:18;17.70;93.20
21759;DHT22;11041;50.854;20.580;2023-03-23T14:14:29;17.70;93.30
21759;DHT22;11041;50.854;20.580;2023-03-23T14:17:26;17.60;93.90
21759;DHT22;11041;50.854;20.580;2023-03-23T14:19:57;17.60;93.70
21759;DHT22;11041;50.854;20.580;2023-03-23T14:22:27;17.60;94.00
21759;DHT22;11041;50.854;20.580;2023-03-23T14:25:02;17.70;93.60
21759;DHT22;11041;50.854;20.580;2023-03-23T14:27:44;17.60;94.30
21759;DHT22;11041;50.854;20.580;2023-03-23T14:30:27;17.60;94.10
21759;DHT22;11041;50.854;20.580;2023-03-23T14:33:05;17.60;95.00
21759;DHT22;11041;50.854;20.580;2023-03-23T14:35:37;17.60;94.70
21759;DHT22;11041;50.854;20.580;2023-03-23T14:38:17;17.70;94.30
21759;DHT22;11041;50.854;20.580;2023-03-23T14:40:47;17.80;94.40
21759;DHT22;11041;50.854;20.580;2023-03-23T14:43:17;17.90;94.40
21759;DHT22;11041;50.854;20.580;2023-03-23T14:45:56;17.90;94.20
21759;DHT22;11041;50.854;20.580;2023-03-23T14:48:25;17.90;94.10
21759;DHT22;11041;50.854;20.580;2023-03-23T14:50:57;17.90;94.80
21759;DHT22;11041;50.854;20.580;2023-03-23T14:53:39;17.70;94.70
21759;DHT22;11041;50.854;20.580;2023-03-23T14:56:16;17.70;95.30
21759;DHT22;11041;50.854;20.580;2023-03-23T14:58:49;17.70;95.10
21759;DHT22;11041;50.854;20.580;2023-03-23T15:04:12;17.60;95.80
21759;DHT22;11041;50.854;20.580;2023-03-23T15:06:58;17.60;95.50
21759;DHT22;11041;50.854;20.580;2023-03-23T15:09:28;17.70;96.00
21759;DHT22;11041;50.854;20.580;2023-03-23T15:11:59;17.70;95.40
21759;DHT22;11041;50.854;20.580;2023-03-23T15:14:34;17.70;95.40
21759;DHT22;11041;50.854;20.580;2023-03-23T15:17:28;17.70;96.20
21759;DHT22;11041;50.854;20.580;2023-03-23T15:20:17;17.60;96.70
21759;DHT22;11041;50.854;20.580;2023-03-23T15:22:48;17.50;96.50
21759;DHT22;11041;50.854;20.580;2023-03-23T15:28:19;17.50;96.80
21759;DHT22;11041;50.854;20.580;2023-03-23T15:30:53;17.40;97.40
21759;DHT22;11041;50.854;20.580;2023-03-23T15:33:24;17.40;98.20
21759;DHT22;11041;50.854;20.580;2023-03-23T15:35:56;17.30;99.10
21759;DHT22;11041;50.854;20.580;2023-03-23T15:38:25;17.20;99.10
21759;DHT22;11041;50.854;20.580;2023-03-23T15:41:21;17.20;99.40
21759;DHT22;11041;50.854;20.580;2023-03-23T15:43:58;17.30;99.10
21759;DHT22;11041;50.854;20.580;2023-03-23T15:46:52;17.30;99.00
21759;DHT22;11041;50.854;20.580;2023-03-23T15:49:27;17.20;99.90
21759;DHT22;11041;50.854;20.580;2023-03-23T15:51:53;17.20;99.60
21759;DHT22;11041;50.854;20.580;2023-03-23T15:54:20;17.30;99.90
21759;DHT22;11041;50.854;20.580;2023-03-23T15:56:46;17.20;99.90
21759;DHT22;11041;50.854;20.580;2023-03-23T15:59:13;17.20;99.90
21759;DHT22;11041;50.854;20.580;2023-03-23T16:01:41;17.20;99.90
21759;DHT22;11041;50.854;20.580;2023-03-23T16:04:14;17.20;99.90
21759;DHT22;11041;50.854;20.580;2023-03-23T16:06:43;17.10;99.90
21759;DHT22;11041;50.854;20.580;2023-03-23T16:09:14;17.10;99.90
21759;DHT22;11041;50.854;20.580;2023-03-23T16:11:44;17.10;99.90
21759;DHT22;11041;50.854;20.580;2023-03-23T16:14:10;17.10;99.90
21759;DHT22;11041;50.854;20.580;2023-03-23T16:16:43;17.10;99.90
21759;DHT22;11041;50.854;20.580;2023-03-23T16:19:13;17.10;99.90
21759;DHT22;11041;50.854;20.580;2023-03-23T16:21:41;17.10;99.90
21759;DHT22;11041;50.854;20.580;2023-03-23T16:24:09;17.00;99.90
21759;DHT22;11041;50.854;20.580;2023-03-23T16:26:36;16.90;99.90
21759;DHT22;11041;50.854;20.580;2023-03-23T16:29:11;16.90;99.90
21759;DHT22;11041;50.854;20.580;2023-03-23T16:31:39;16.90;99.90
21759;DHT22;11041;50.854;20.580;2023-03-23T16:34:06;16.80;99.90
21759;DHT22;11041;50.854;20.580;2023-03-23T16:36:34;16.80;99.90
21759;DHT22;11041;50.854;20.580;2023-03-23T16:39:01;16.70;99.90
21759;DHT22;11041;50.854;20.580;2023-03-23T16:41:28;16.70;99.90
21759;DHT22;11041;50.854;20.580;2023-03-23T16:43:54;16.60;99.90
21759;DHT22;11041;50.854;20.580;2023-03-23T16:46:21;16.50;99.90
21759;DHT22;11041;50.854;20.580;2023-03-23T16:48:48;16.50;99.90
21759;DHT22;11041;50.854;20.580;2023-03-23T16:51:14;16.50;99.90
21759;DHT22;11041;50.854;20.580;2023-03-23T16:53:41;16.40;99.90
21759;DHT22;11041;50.854;20.580;2023-03-23T16:56:07;16.50;99.90
21759;DHT22;11041;50.854;20.580;2023-03-23T16:58:34;16.50;99.90
21759;DHT22;11041;50.854;20.580;2023-03-23T17:01:01;16.40;99.90
21759;DHT22;11041;50.854;20.580;2023-03-23T17:03:28;16.20;99.90
21759;DHT22;11041;50.854;20.580;2023-03-23T17:05:55;16.20;99.90
21759;DHT22;11041;50.854;20.580;2023-03-23T17:08:23;16.10;99.90
21759;DHT22;11041;50.854;20.580;2023-03-23T17:10:52;16.10;99.90
21759;DHT22;11041;50.854;20.580;2023-03-23T17:13:19;16.00;99.90
21759;DHT22;11041;50.854;20.580;2023-03-23T17:15:45;16.00;99.90
21759;DHT22;11041;50.854;20.580;2023-03-23T17:18:13;15.90;99.90
21759;DHT22;11041;50.854;20.580;2023-03-23T17:20:41;15.90;99.90
21759;DHT22;11041;50.854;20.580;2023-03-23T17:23:08;15.80;99.90
21759;DHT22;11041;50.854;20.580;2023-03-23T17:25:35;15.70;99.90
21759;DHT22;11041;50.854;20.580;2023-03-23T17:28:04;15.70;99.90
21759;DHT22;11041;50.854;20.580;2023-03-23T17:30:31;15.60;99.90
21759;DHT22;11041;50.854;20.580;2023-03-23T17:32:58;15.50;99.90
21759;DHT22;11041;50.854;20.580;2023-03-23T17:35:25;15.50;99.90
21759;DHT22;11041;50.854;20.580;2023-03-23T17:37:51;15.40;99.90
21759;DHT22;11041;50.854;20.580;2023-03-23T17:40:18;15.30;99.90
21759;DHT22;11041;50.854;20.580;2023-03-23T17:42:44;15.20;99.90
21759;DHT22;11041;50.854;20.580;2023-03-23T17:45:12;15.10;99.90
21759;DHT22;11041;50.854;20.580;2023-03-23T17:47:39;15.00;99.90
21759;DHT22;11041;50.854;20.580;2023-03-23T17:50:06;15.00;99.90
21759;DHT22;11041;50.854;20.580;2023-03-23T17:52:34;14.90;99.90
21759;DHT22;11041;50.854;20.580;2023-03-23T17:55:01;14.90;99.90
21759;DHT22;11041;50.854;20.580;2023-03-23T17:57:28;14.80;99.90
21759;DHT22;11041;50.854;20.580;2023-03-23T17:59:54;14.80;99.90
21759;DHT22;11041;50.854;20.580;2023-03-23T18:02:21;14.70;99.90
21759;DHT22;11041;50.854;20.580;2023-03-23T18:04:47;14.70;99.90
21759;DHT22;11041;50.854;20.580;2023-03-23T18:07:14;14.60;99.90
21759;DHT22;11041;50.854;20.580;2023-03-23T18:09:41;14.60;99.90